Time;durP1;ratioP1;P1;durP2;ratioP2;P2;SDS_P1;SDS_P2;PMS_P1;PMS_P2;Temp;Humidity;BMP_temperature;BMP_pressure;BME280_temperature;BME280_humidity;BME280_pressure;Samples;Min_cycle;Max_cycle;Signal;HPM_P1;HPM_P2
2023/12/17 00:00:14;;;;;;;20.65;18.05;;;;;;;6.30;73.19;103659.28;4918736;28;20555;-80
2023/12/17 00:02:41;;;;;;;21.80;18.67;;;;;;;6.22;73.25;103642.75;4919957;28;20074;-81
2023/12/17 00:05:34;;;;;;;22.48;18.10;;;;;;;6.10;73.12;103631.56;4916249;28;20461;-81
2023/12/17 00:08:01;;;;;;;20.08;17.05;;;;;;;6.23;73.19;103626.00;4908170;28;20407;-79
2023/12/17 00:10:28;;;;;;;23.90;17.00;;;;;;;6.33;72.82;103653.91;4913756;28;20050;-81
2023/12/17 00:12:57;;;;;;;23.30;19.15;;;;;;;6.25;72.75;103637.41;4934055;28;20834;-80
2023/12/17 00:15:24;;;;;;;25.92;19.42;;;;;;;6.45;73.01;103658.91;4948825;28;20053;-78
2023/12/17 00:17:53;;;;;;;21.38;18.30;;;;;;;6.38;73.01;103641.47;4948274;28;20449;-81
2023/12/17 00:20:20;;;;;;;24.33;18.65;;;;;;;6.32;72.90;103631.94;4953066;28;20050;-79
2023/12/17 00:22:50;;;;;;;22.50;18.58;;;;;;;6.28;73.45;103613.56;4936375;28;20845;-80
2023/12/17 00:25:17;;;;;;;24.35;18.02;;;;;;;6.39;72.96;103616.84;4936774;28;20230;-82
2023/12/17 00:27:49;;;;;;;23.48;18.42;;;;;;;6.40;72.76;103644.97;4922602;28;20043;-82
2023/12/17 00:30:17;;;;;;;20.77;17.52;;;;;;;6.15;72.85;103624.41;4929660;28;20058;-80
2023/12/17 00:33:03;;;;;;;20.67;18.52;;;;;;;6.34;73.48;103651.25;4945712;28;20411;-81
2023/12/17 00:35:33;;;;;;;24.13;18.50;;;;;;;5.90;73.89;103566.03;4960984;28;20054;-80
2023/12/17 00:37:59;;;;;;;20.75;17.98;;;;;;;6.20;73.78;103601.44;4944233;28;20628;-80
2023/12/17 00:40:28;;;;;;;21.50;18.92;;;;;;;5.83;73.62;103545.97;4931495;28;20133;-82
2023/12/17 00:42:58;;;;;;;19.75;17.65;;;;;;;6.33;73.77;103627.53;4916840;28;20366;-80
2023/12/17 00:45:24;;;;;;;20.98;17.73;;;;;;;6.44;73.54;103653.69;4931332;28;20133;-81
2023/12/17 00:47:55;;;;;;;23.88;18.55;;;;;;;6.32;73.63;103650.41;4955393;28;20401;-82
2023/12/17 00:50:27;;;;;;;21.25;17.40;;;;;;;6.32;73.84;103650.41;4936029;28;20054;-83
2023/12/17 00:52:53;;;;;;;22.50;18.10;;;;;;;6.27;73.65;103631.19;4937254;28;20052;-80
2023/12/17 00:55:27;;;;;;;23.40;18.58;;;;;;;6.41;73.51;103634.38;4959560;28;20055;-82
2023/12/17 00:57:54;;;;;;;19.17;17.17;;;;;;;6.13;73.09;103589.28;4917691;28;20051;-81
2023/12/17 01:00:24;;;;;;;25.95;18.55;;;;;;;6.08;73.32;103585.88;4899613;28;20058;-82
2023/12/17 01:02:51;;;;;;;23.70;19.42;;;;;;;6.39;73.54;103640.59;4925720;28;20464;-82
2023/12/17 01:05:20;;;;;;;27.08;20.00;;;;;;;6.32;73.41;103641.63;4918150;28;20511;-83
2023/12/17 01:07:50;;;;;;;24.95;18.98;;;;;;;6.20;72.83;103603.22;4956463;28;20114;-82
2023/12/17 01:10:17;;;;;;;21.23;17.45;;;;;;;6.44;72.99;103641.34;4951678;28;20053;-83
2023/12/17 01:12:43;;;;;;;20.52;18.13;;;;;;;6.43;72.87;103636.97;4946961;28;20050;-83
2023/12/17 01:15:13;;;;;;;25.55;19.65;;;;;;;6.23;73.19;103618.97;4944675;28;20057;-82
2023/12/17 01:17:40;;;;;;;21.50;18.95;;;;;;;6.19;72.90;103620.81;4948735;28;20054;-81
2023/12/17 01:20:11;;;;;;;25.25;18.88;;;;;;;6.30;73.19;103646.06;4953356;28;20061;-83
2023/12/17 01:22:38;;;;;;;22.42;17.73;;;;;;;6.18;73.30;103616.41;4952871;28;20046;-82
2023/12/17 01:25:07;;;;;;;23.77;18.13;;;;;;;6.35;73.51;103660.03;4942401;28;20533;-81
2023/12/17 01:27:34;;;;;;;23.40;18.45;;;;;;;6.07;73.39;103602.63;4930967;28;20152;-81
2023/12/17 01:30:01;;;;;;;24.52;20.02;;;;;;;5.90;73.14;103570.44;4931031;28;20252;-81
2023/12/17 01:32:28;;;;;;;22.13;18.45;;;;;;;6.26;72.93;103599.53;4934367;28;20054;-83
2023/12/17 01:34:55;;;;;;;20.52;18.02;;;;;;;6.28;73.37;103634.69;4939632;28;20046;-81
2023/12/17 01:37:23;;;;;;;22.70;18.80;;;;;;;6.07;73.52;103604.38;4941784;28;20128;-81
2023/12/17 01:39:52;;;;;;;21.92;17.98;;;;;;;6.20;73.83;103627.81;4918812;28;20054;-83
2023/12/17 01:42:22;;;;;;;24.27;19.38;;;;;;;6.30;73.47;103640.81;4941551;28;20323;-82
2023/12/17 01:44:49;;;;;;;24.67;20.48;;;;;;;5.45;73.48;103488.81;4934846;28;20144;-81
2023/12/17 01:47:16;;;;;;;25.33;19.42;;;;;;;5.79;73.68;103560.97;4935659;28;20042;-81
2023/12/17 01:49:43;;;;;;;21.88;18.80;;;;;;;6.01;73.46;103589.56;4949304;28;20482;-82
2023/12/17 01:52:09;;;;;;;24.17;18.88;;;;;;;6.24;73.54;103625.09;4935367;28;20126;-79
2023/12/17 01:54:36;;;;;;;21.58;19.30;;;;;;;6.28;73.73;103625.00;4949855;28;20149;-79
2023/12/17 01:57:04;;;;;;;22.13;19.77;;;;;;;6.28;73.58;103627.63;4934563;28;20498;-81
2023/12/17 01:59:35;;;;;;;23.50;18.70;;;;;;;5.35;73.49;103483.72;4951085;28;20058;-82
2023/12/17 02:02:05;;;;;;;25.15;19.75;;;;;;;5.62;73.94;103536.75;4934869;28;20302;-81
2023/12/17 02:04:33;;;;;;;22.88;19.08;;;;;;;5.39;74.58;103520.53;4953898;28;20139;-81
2023/12/17 02:07:00;;;;;;;25.13;18.42;;;;;;;5.88;74.66;103593.34;4928441;28;20458;-79
2023/12/17 02:09:27;;;;;;;24.90;19.75;;;;;;;5.10;74.55;103458.81;4912804;28;20066;-81
2023/12/17 02:11:59;;;;;;;25.38;20.55;;;;;;;4.66;74.53;103395.63;4911913;28;20414;-81
2023/12/17 02:14:25;;;;;;;;;;;;;;;5.90;74.94;103613.50;4917323;28;20061;-80
2023/12/17 02:16:52;;;;;;;23.08;18.42;;;;;;;5.83;75.16;103596.06;4934342;28;19932;-84
2023/12/17 02:19:19;;;;;;;20.45;18.05;;;;;;;5.91;75.01;103598.53;4950356;28;20072;-82
2023/12/17 02:21:46;;;;;;;23.13;19.45;;;;;;;5.60;74.67;103543.81;4932787;28;20120;-83
2023/12/17 02:24:13;;;;;;;21.92;18.83;;;;;;;5.77;74.36;103568.03;4916450;28;20054;-84
2023/12/17 02:26:45;;;;;;;23.08;19.48;;;;;;;5.74;74.02;103559.34;4898114;28;20381;-83
2023/12/17 02:29:18;;;;;;;22.80;19.02;;;;;;;6.06;73.94;103592.94;4932847;28;20294;-82
2023/12/17 02:31:48;;;;;;;23.30;19.85;;;;;;;6.10;74.08;103594.63;4922128;28;20050;-78
2023/12/17 02:34:15;;;;;;;25.20;18.67;;;;;;;5.86;73.66;103526.59;4926919;28;20384;-81
2023/12/17 02:36:42;;;;;;;21.42;19.15;;;;;;;5.90;73.34;103541.44;4929350;28;20081;-82
2023/12/17 02:39:09;;;;;;;22.95;18.77;;;;;;;6.16;73.41;103576.00;4907273;28;20399;-82
2023/12/17 02:41:36;;;;;;;26.00;19.15;;;;;;;5.92;73.47;103558.97;4918481;28;20113;-81
2023/12/17 02:44:03;;;;;;;21.23;18.73;;;;;;;6.13;73.12;103573.44;4920816;28;20436;-83
2023/12/17 02:46:30;;;;;;;26.05;20.17;;;;;;;6.02;73.53;103557.03;4905052;28;20877;-83
2023/12/17 02:48:57;;;;;;;23.92;19.35;;;;;;;5.72;73.88;103517.19;4927002;28;20368;-81
2023/12/17 02:51:32;;;;;;;27.73;20.25;;;;;;;5.97;74.22;103567.66;4906615;28;20084;-83
2023/12/17 02:54:01;;;;;;;21.15;18.85;;;;;;;6.10;73.84;103576.16;4897832;28;20058;-81
2023/12/17 02:56:28;;;;;;;22.52;18.55;;;;;;;5.98;73.21;103543.03;4911117;28;20505;-81
2023/12/17 02:58:59;;;;;;;21.20;18.35;;;;;;;5.84;73.18;103512.56;4917633;28;20108;-82
2023/12/17 03:01:29;;;;;;;23.58;18.73;;;;;;;6.12;73.47;103566.44;4910093;28;20058;-80
2023/12/17 03:03:55;;;;;;;21.35;18.50;;;;;;;6.12;72.88;103555.03;4922161;28;20368;-79
2023/12/17 03:06:22;;;;;;;21.83;18.17;;;;;;;6.04;72.57;103509.50;4908272;28;20745;-82
2023/12/17 03:08:49;;;;;;;21.60;17.55;;;;;;;6.05;72.01;103506.84;4933313;28;20070;-82
2023/12/17 03:11:16;;;;;;;21.88;18.58;;;;;;;5.55;72.09;103442.91;4916407;28;20429;-83
2023/12/17 03:13:43;;;;;;;20.35;17.67;;;;;;;6.09;72.62;103563.00;4928171;28;20889;-80
2023/12/17 03:16:12;;;;;;;21.05;16.85;;;;;;;6.03;72.65;103550.84;4942169;28;20101;-82
2023/12/17 03:18:43;;;;;;;23.90;18.15;;;;;;;6.14;72.38;103554.09;4897510;28;20436;-83
2023/12/17 03:21:15;;;;;;;22.48;17.65;;;;;;;6.02;72.60;103549.09;4956946;28;20046;-80
2023/12/17 03:23:42;;;;;;;23.75;19.33;;;;;;;6.01;72.15;103542.09;4932408;28;20062;-82
2023/12/17 03:26:11;;;;;;;18.90;16.60;;;;;;;5.87;72.78;103528.31;4935231;28;20077;-82
2023/12/17 03:28:42;;;;;;;26.83;18.33;;;;;;;5.92;72.44;103521.16;4947787;28;20057;-81
2023/12/17 03:31:15;;;;;;;22.75;18.13;;;;;;;5.96;71.86;103525.50;4936139;28;20417;-84
2023/12/17 03:33:44;;;;;;;22.58;18.52;;;;;;;6.17;71.87;103563.72;4942709;28;20053;-82
2023/12/17 03:36:15;;;;;;;20.17;18.05;;;;;;;5.97;71.52;103545.69;4940076;28;20496;-81
2023/12/17 03:38:44;;;;;;;21.02;17.55;;;;;;;5.84;71.94;103523.97;4935343;28;20442;-81
2023/12/17 03:41:23;;;;;;;19.67;17.23;;;;;;;5.79;71.52;103524.06;4929587;28;20054;-82
2023/12/17 03:43:53;;;;;;;22.73;17.15;;;;;;;5.73;72.27;103536.53;4932889;28;20488;-80
2023/12/17 03:46:21;;;;;;;21.60;18.73;;;;;;;5.62;72.32;103499.84;4914516;28;20062;-81
2023/12/17 03:48:48;;;;;;;20.33;17.88;;;;;;;5.98;72.18;103574.66;4928638;28;20065;-82
2023/12/17 03:51:20;;;;;;;24.08;19.88;;;;;;;5.65;71.79;103518.22;4910897;28;20271;-81
2023/12/17 03:53:48;;;;;;;22.20;17.55;;;;;;;5.98;72.26;103571.16;4951142;28;20211;-82
2023/12/17 03:56:16;;;;;;;22.23;17.63;;;;;;;6.00;72.25;103566.72;4959622;28;20812;-82
2023/12/17 03:58:43;;;;;;;20.13;16.90;;;;;;;6.03;71.83;103558.75;4972907;28;20049;-82
2023/12/17 04:01:11;;;;;;;21.10;16.73;;;;;;;5.33;71.56;103438.09;4952108;28;20056;-79
2023/12/17 04:03:38;;;;;;;24.10;18.30;;;;;;;5.16;70.90;103418.31;4904306;28;20804;-80
2023/12/17 04:06:10;;;;;;;22.70;17.27;;;;;;;5.75;71.15;103527.69;4938322;28;20250;-80
2023/12/17 04:08:43;;;;;;;20.15;16.77;;;;;;;6.06;71.38;103571.84;4944581;28;20076;-81
2023/12/17 04:11:10;;;;;;;19.95;15.73;;;;;;;6.03;71.08;103577.22;4956038;28;20128;-81
2023/12/17 04:13:37;;;;;;;18.45;16.25;;;;;;;5.90;71.17;103568.66;4929910;28;20695;-81
2023/12/17 04:16:04;;;;;;;19.38;17.25;;;;;;;5.98;71.64;103584.34;4919650;28;20144;-82
2023/12/17 04:18:31;;;;;;;19.17;15.70;;;;;;;5.60;71.44;103541.19;4909733;28;20407;-80
2023/12/17 04:20:58;;;;;;;20.95;16.02;;;;;;;5.73;72.00;103569.03;4938325;28;20435;-84
2023/12/17 04:23:25;;;;;;;18.55;16.48;;;;;;;5.92;71.27;103589.72;4934891;28;20041;-84
2023/12/17 04:25:53;;;;;;;18.50;14.75;;;;;;;5.77;70.74;103562.78;4939360;28;20475;-82
2023/12/17 04:28:20;;;;;;;16.50;14.70;;;;;;;5.87;70.04;103587.16;4960224;28;20749;-85
2023/12/17 04:30:47;;;;;;;20.60;16.08;;;;;;;4.78;70.25;103410.31;4954239;28;20195;-85
2023/12/17 04:33:14;;;;;;;19.27;15.40;;;;;;;5.99;69.74;103588.72;4946770;28;20386;-84
2023/12/17 04:35:42;;;;;;;22.77;14.45;;;;;;;5.69;69.88;103548.03;4963342;28;20156;-83
2023/12/17 04:38:09;;;;;;;16.98;13.85;;;;;;;6.05;69.28;103595.66;4921942;28;20063;-81
2023/12/17 04:40:36;;;;;;;18.40;14.10;;;;;;;5.86;69.34;103585.44;4917920;28;20433;-80
2023/12/17 04:43:04;;;;;;;16.88;14.40;;;;;;;5.79;69.41;103583.84;4917805;28;20524;-80
2023/12/17 04:45:31;;;;;;;15.77;13.85;;;;;;;5.78;69.24;103569.81;4922884;28;20093;-82
2023/12/17 04:47:58;;;;;;;18.17;13.95;;;;;;;5.37;69.14;103506.56;4925023;28;20360;-82
2023/12/17 04:50:25;;;;;;;19.15;13.38;;;;;;;5.96;68.69;103581.75;4933559;28;20054;-80
2023/12/17 04:52:52;;;;;;;18.95;14.65;;;;;;;5.84;68.48;103565.28;4935215;28;20045;-81
2023/12/17 04:55:22;;;;;;;14.70;12.90;;;;;;;5.59;68.13;103513.09;4945434;28;20078;-81
2023/12/17 04:57:49;;;;;;;18.40;13.38;;;;;;;6.01;68.01;103600.09;4977706;28;20145;-80
2023/12/17 05:00:17;;;;;;;16.10;13.30;;;;;;;5.82;68.21;103567.09;4978970;28;20060;-82
2023/12/17 05:02:46;;;;;;;15.88;12.68;;;;;;;6.07;67.98;103599.97;4942518;28;20050;-82
2023/12/17 05:05:13;;;;;;;15.35;12.98;;;;;;;5.57;67.48;103526.31;4948602;28;20706;-81
2023/12/17 05:07:40;;;;;;;15.27;13.43;;;;;;;5.90;67.75;103581.00;4962921;28;20440;-81
2023/12/17 05:10:09;;;;;;;14.75;12.43;;;;;;;5.87;67.62;103581.03;4949958;28;20068;-81
2023/12/17 05:12:36;;;;;;;16.30;12.18;;;;;;;5.54;67.40;103525.50;4943771;28;20057;-82
2023/12/17 05:15:03;;;;;;;15.32;12.05;;;;;;;5.93;67.26;103599.38;4921351;28;20046;-81
2023/12/17 05:17:37;;;;;;;16.58;12.40;;;;;;;5.90;67.14;103596.81;4919743;28;20287;-82
2023/12/17 05:20:10;;;;;;;16.60;12.77;;;;;;;5.77;67.73;103590.91;4925652;28;20569;-82
2023/12/17 05:22:37;;;;;;;16.23;13.48;;;;;;;5.93;67.30;103609.94;4927443;28;20051;-81
2023/12/17 05:25:05;;;;;;;15.30;13.18;;;;;;;5.90;67.68;103597.69;4952082;28;20562;-82
2023/12/17 05:27:32;;;;;;;13.93;12.40;;;;;;;5.76;67.50;103579.50;4938169;28;20053;-81
2023/12/17 05:29:59;;;;;;;16.60;12.45;;;;;;;5.70;67.49;103589.31;4956791;28;20062;-80
2023/12/17 05:32:26;;;;;;;15.02;12.80;;;;;;;5.71;68.16;103607.72;4961028;28;20050;-82
2023/12/17 05:34:53;;;;;;;13.57;11.43;;;;;;;5.53;67.87;103580.00;4969447;28;20147;-81
2023/12/17 05:37:25;;;;;;;18.17;13.10;;;;;;;5.71;68.30;103602.47;4944756;28;20069;-81
2023/12/17 05:39:52;;;;;;;14.20;12.00;;;;;;;5.47;67.96;103560.78;4954232;28;20046;-82
2023/12/17 05:42:19;;;;;;;15.20;12.52;;;;;;;5.74;67.96;103607.66;4936854;28;20042;-80
2023/12/17 05:44:54;;;;;;;16.02;13.07;;;;;;;5.74;67.80;103620.84;4915659;28;20069;-82
2023/12/17 05:47:26;;;;;;;14.10;11.63;;;;;;;5.44;67.66;103589.84;4906934;28;20239;-81
2023/12/17 05:49:55;;;;;;;13.45;11.25;;;;;;;5.75;67.59;103622.59;4934561;28;20139;-83
2023/12/17 05:52:22;;;;;;;18.15;12.40;;;;;;;5.62;67.51;103605.28;4910691;28;20637;-82
2023/12/17 05:54:49;;;;;;;15.98;13.10;;;;;;;5.23;68.09;103535.81;4942163;28;20092;-79
2023/12/17 05:57:17;;;;;;;16.33;12.25;;;;;;;5.45;67.51;103576.63;4926217;28;20046;-82
2023/12/17 05:59:44;;;;;;;18.35;13.02;;;;;;;5.21;67.49;103548.13;4943896;28;20090;-81
2023/12/17 06:02:11;;;;;;;14.75;12.48;;;;;;;5.53;68.10;103613.34;4914641;28;20506;-81
2023/12/17 06:04:38;;;;;;;16.77;12.25;;;;;;;5.51;67.86;103616.03;4923095;28;20300;-83
2023/12/17 06:07:06;;;;;;;15.32;12.32;;;;;;;5.48;68.04;103613.44;4927178;28;20142;-80
2023/12/17 06:09:42;;;;;;;14.85;12.10;;;;;;;5.18;68.22;103570.13;4882566;28;20226;-82
2023/12/17 06:12:10;;;;;;;17.60;13.27;;;;;;;5.40;68.63;103611.88;4900537;28;20146;-81
2023/12/17 06:14:40;;;;;;;14.77;13.15;;;;;;;5.25;68.50;103592.81;4901713;29;20047;-80
2023/12/17 06:17:07;;;;;;;15.43;12.30;;;;;;;5.26;69.17;103602.44;4906023;29;20491;-81
2023/12/17 06:19:36;;;;;;;16.58;13.55;;;;;;;5.12;68.55;103571.13;4934384;28;20635;-79
2023/12/17 06:22:04;;;;;;;17.15;12.63;;;;;;;5.31;68.47;103600.59;4921873;28;20332;-82
2023/12/17 06:24:32;;;;;;;15.73;13.13;;;;;;;5.08;68.88;103568.56;4901695;28;20397;-82
2023/12/17 06:27:02;;;;;;;18.95;13.02;;;;;;;5.39;68.61;103626.81;4912774;29;20334;-83
2023/12/17 06:29:28;;;;;;;19.38;14.23;;;;;;;5.33;69.08;103629.56;4901310;28;20834;-81
2023/12/17 06:31:55;;;;;;;16.35;12.77;;;;;;;5.34;69.04;103634.81;4932142;28;20047;-81
2023/12/17 06:34:22;;;;;;;19.17;13.90;;;;;;;5.34;68.78;103634.81;4925067;29;20110;-81
2023/12/17 06:36:49;;;;;;;18.13;13.30;;;;;;;5.38;68.64;103640.88;4940554;28;20058;-81
2023/12/17 06:39:16;;;;;;;18.23;13.63;;;;;;;5.42;68.56;103631.16;4915240;29;20495;-81
2023/12/17 06:41:47;;;;;;;17.98;13.15;;;;;;;5.43;68.68;103627.63;4919173;29;20076;-82
2023/12/17 06:44:15;;;;;;;18.17;14.52;;;;;;;5.33;68.85;103624.28;4919192;29;20054;-81
2023/12/17 06:46:45;;;;;;;19.70;14.75;;;;;;;5.38;69.05;103634.75;4906166;29;20634;-81
2023/12/17 06:49:17;;;;;;;16.70;12.65;;;;;;;5.38;68.63;103629.47;4911901;28;20469;-81
2023/12/17 06:51:44;;;;;;;16.20;12.95;;;;;;;5.25;68.61;103619.16;4926127;28;20051;-81
2023/12/17 06:54:11;;;;;;;19.77;12.48;;;;;;;4.72;69.45;103542.00;4917190;28;20130;-82
2023/12/17 06:56:38;;;;;;;19.02;13.98;;;;;;;5.10;69.74;103606.28;4915413;28;20054;-82
2023/12/17 06:59:05;;;;;;;16.73;13.13;;;;;;;5.39;69.29;103654.91;4900823;29;20055;-82
2023/12/17 07:01:32;;;;;;;17.95;15.18;;;;;;;5.38;68.71;103661.09;4892793;29;20414;-82
2023/12/17 07:04:02;;;;;;;18.38;14.07;;;;;;;5.02;69.07;103623.97;4899836;28;20814;-81
2023/12/17 07:06:33;;;;;;;15.30;13.27;;;;;;;5.31;69.55;103674.34;4947409;28;20810;-82
2023/12/17 07:09:01;;;;;;;16.70;13.55;;;;;;;5.31;69.69;103666.44;4944573;28;20050;-82
2023/12/17 07:11:28;;;;;;;16.35;13.25;;;;;;;5.18;69.20;103627.22;4909712;28;20124;-81
2023/12/17 07:13:58;;;;;;;17.13;13.00;;;;;;;5.14;68.79;103629.00;4915810;28;20046;-81
2023/12/17 07:16:28;;;;;;;17.15;12.73;;;;;;;5.48;68.67;103670.56;4932858;28;20054;-81
2023/12/17 07:18:56;;;;;;;15.70;13.30;;;;;;;5.40;68.54;103659.31;4930283;28;20068;-82
2023/12/17 07:21:27;;;;;;;17.00;12.93;;;;;;;5.33;68.31;103640.09;4922149;28;20260;-83
2023/12/17 07:23:56;;;;;;;16.08;13.40;;;;;;;5.54;68.36;103663.41;4932020;28;20042;-80
2023/12/17 07:26:24;;;;;;;15.10;11.88;;;;;;;5.55;67.67;103674.81;4943895;28;20054;-80
2023/12/17 07:28:51;;;;;;;15.70;12.23;;;;;;;5.58;67.61;103685.28;4954226;28;20086;-82
2023/12/17 07:31:17;;;;;;;13.02;11.25;;;;;;;5.63;67.49;103683.47;4954775;28;20442;-82
2023/12/17 07:33:44;;;;;;;17.65;12.52;;;;;;;5.49;67.44;103643.31;4937200;28;20467;-82
2023/12/17 07:36:12;;;;;;;19.02;11.98;;;;;;;5.64;67.59;103682.56;4956447;28;20181;-81
2023/12/17 07:38:43;;;;;;;12.00;9.77;;;;;;;5.77;66.67;103699.88;4951087;28;20046;-82
2023/12/17 07:41:10;;;;;;;14.68;10.45;;;;;;;5.67;66.69;103690.41;4936827;28;21560;-81
2023/12/17 07:43:37;;;;;;;14.32;11.63;;;;;;;5.48;66.67;103660.88;4929727;28;20326;-80
2023/12/17 07:46:04;;;;;;;16.05;11.88;;;;;;;5.71;67.14;103686.81;4943940;28;20458;-80
2023/12/17 07:48:31;;;;;;;13.30;11.18;;;;;;;5.62;66.65;103668.53;4910390;28;20068;-81
2023/12/17 07:51:01;;;;;;;12.95;10.68;;;;;;;4.95;66.29;103567.03;4956504;28;20579;-81
2023/12/17 07:53:28;;;;;;;13.38;10.60;;;;;;;5.22;66.44;103600.78;4936513;28;20571;-81
2023/12/17 07:55:57;;;;;;;12.85;10.20;;;;;;;5.72;66.03;103682.41;4960219;28;20133;-81
2023/12/17 07:58:28;;;;;;;13.50;10.77;;;;;;;4.29;66.15;103434.88;4930713;28;20058;-82
2023/12/17 08:00:55;;;;;;;12.40;10.77;;;;;;;4.95;66.26;103532.81;4929125;28;20057;-80
2023/12/17 08:03:23;;;;;;;14.23;10.80;;;;;;;5.84;66.04;103692.72;4919240;28;20113;-82
2023/12/17 08:05:52;;;;;;;16.20;11.57;;;;;;;5.35;66.17;103602.28;4938157;28;20054;-82
2023/12/17 08:08:20;;;;;;;16.52;12.77;;;;;;;5.66;65.96;103657.03;4931525;28;20046;-81
2023/12/17 08:10:47;;;;;;;16.05;11.90;;;;;;;5.59;66.59;103628.22;4936538;28;20243;-80
2023/12/17 08:13:15;;;;;;;14.90;12.43;;;;;;;6.01;65.95;103670.44;4932187;28;20061;-80
2023/12/17 08:15:46;;;;;;;17.15;13.95;;;;;;;6.20;66.03;103720.16;4911826;28;20581;-80
2023/12/17 08:18:14;;;;;;;14.55;12.85;;;;;;;6.13;66.54;103715.88;4913200;28;20137;-81
2023/12/17 08:20:41;;;;;;;16.60;12.90;;;;;;;6.19;66.51;103720.19;4921638;28;20345;-77
2023/12/17 08:23:11;;;;;;;15.23;12.65;;;;;;;5.57;66.24;103583.41;4937965;28;20106;-81
2023/12/17 08:25:38;;;;;;;17.63;13.60;;;;;;;5.89;65.99;103647.78;4934650;28;20309;-81
2023/12/17 08:28:08;;;;;;;16.08;13.50;;;;;;;6.29;66.26;103724.38;4926836;28;20281;-80
2023/12/17 08:30:39;;;;;;;15.93;14.20;;;;;;;6.53;65.50;103740.56;4932119;28;20491;-80
2023/12/17 08:33:06;;;;;;;18.05;14.63;;;;;;;6.48;65.83;103719.56;4938107;28;20122;-80
2023/12/17 08:35:39;;;;;;;17.27;14.82;;;;;;;6.57;65.70;103736.97;4938601;28;20638;-83
2023/12/17 08:38:07;;;;;;;15.77;14.05;;;;;;;6.62;65.65;103730.66;4918047;28;20130;-81
2023/12/17 08:40:39;;;;;;;18.73;15.05;;;;;;;6.40;65.63;103697.75;4903749;28;20510;-81
2023/12/17 08:43:07;;;;;;;16.20;14.60;;;;;;;6.48;65.91;103708.13;4931455;28;20050;-81
2023/12/17 08:45:34;;;;;;;20.50;16.17;;;;;;;6.58;65.95;103729.03;4933265;28;20054;-81
2023/12/17 08:48:02;;;;;;;17.77;15.88;;;;;;;6.62;66.11;103746.50;4968112;28;20414;-82
2023/12/17 08:50:30;;;;;;;18.55;15.35;;;;;;;6.67;66.21;103737.63;4942503;28;20336;-83
2023/12/17 08:52:59;;;;;;;17.40;14.73;;;;;;;6.74;65.91;103733.94;4954472;28;20051;-82
2023/12/17 08:55:25;;;;;;;19.38;15.13;;;;;;;6.69;66.00;103725.25;4947005;28;20565;-82
2023/12/17 08:57:53;;;;;;;21.35;15.20;;;;;;;6.71;65.85;103707.63;4960470;28;20403;-83
2023/12/17 09:00:20;;;;;;;18.55;15.60;;;;;;;6.81;65.94;103740.81;4963378;28;20050;-82
2023/12/17 09:02:50;;;;;;;17.60;15.57;;;;;;;6.82;65.89;103721.41;4968626;28;20078;-81
2023/12/17 09:05:17;;;;;;;19.48;16.25;;;;;;;6.83;66.37;103731.09;4946180;28;20047;-83
2023/12/17 09:07:45;;;;;;;19.38;16.20;;;;;;;6.91;66.09;103744.13;4924182;28;20555;-83
2023/12/17 09:10:23;;;;;;;19.15;16.15;;;;;;;6.86;65.50;103723.09;4934594;28;20047;-82
2023/12/17 09:12:50;;;;;;;18.75;15.85;;;;;;;7.03;66.00;103741.19;4902813;28;20131;-82
2023/12/17 09:15:20;;;;;;;19.63;16.15;;;;;;;6.72;65.39;103682.94;4900031;29;20055;-82
2023/12/17 09:17:50;;;;;;;19.13;17.08;;;;;;;6.79;65.75;103695.09;4892393;29;20051;-82
2023/12/17 09:20:19;;;;;;;19.35;16.58;;;;;;;6.90;65.18;103708.94;4910789;28;20647;-80
2023/12/17 09:22:50;;;;;;;17.50;15.47;;;;;;;6.78;65.22;103657.25;4928341;28;20133;-81
2023/12/17 09:25:17;;;;;;;19.75;15.70;;;;;;;7.15;65.56;103717.09;4907100;28;20298;-81
2023/12/17 09:27:43;;;;;;;18.83;15.15;;;;;;;7.20;65.32;103717.00;4906266;28;20180;-80
2023/12/17 09:30:12;;;;;;;17.60;15.02;;;;;;;7.39;64.70;103728.84;4925070;28;20222;-81
2023/12/17 09:32:39;;;;;;;18.00;14.90;;;;;;;6.97;64.45;103641.84;4915673;28;20047;-81
2023/12/17 09:35:10;;;;;;;18.40;16.38;;;;;;;7.22;64.33;103659.69;4891145;29;20340;-81
2023/12/17 09:37:40;;;;;;;17.95;16.02;;;;;;;7.58;64.44;103723.09;4920164;29;20102;-79
2023/12/17 09:40:08;;;;;;;21.35;15.88;;;;;;;7.61;64.67;103702.69;4895940;29;20054;-80
2023/12/17 09:42:34;;;;;;;20.10;17.02;;;;;;;7.66;64.63;103695.50;4890301;28;20087;-80
2023/12/17 09:45:01;;;;;;;16.02;14.45;;;;;;;7.64;64.38;103684.09;4912601;29;20065;-81
2023/12/17 09:47:28;;;;;;;19.38;15.70;;;;;;;7.74;64.57;103692.66;4895204;28;20070;-84
2023/12/17 09:49:55;;;;;;;18.92;15.57;;;;;;;7.50;64.60;103630.78;4908485;28;20945;-82
2023/12/17 09:52:31;;;;;;;19.27;16.08;;;;;;;7.74;64.39;103671.50;4879220;29;20051;-83
2023/12/17 09:55:03;;;;;;;15.57;13.98;;;;;;;7.71;64.53;103658.38;4882885;29;20490;-82
2023/12/17 09:57:33;;;;;;;17.05;14.77;;;;;;;7.91;64.23;103669.25;4876762;28;20058;-82
2023/12/17 10:00:04;;;;;;;17.70;14.77;;;;;;;7.79;64.90;103653.75;4876884;29;20059;-83
2023/12/17 10:02:31;;;;;;;17.13;14.07;;;;;;;7.91;64.36;103669.25;4893068;28;20481;-81
2023/12/17 10:05:11;;;;;;;20.25;15.15;;;;;;;7.84;64.83;103646.53;4916825;28;20284;-81
2023/12/17 10:07:41;;;;;;;23.63;15.85;;;;;;;8.14;63.92;103678.31;4913464;28;20084;-80
2023/12/17 10:10:08;;;;;;;17.42;14.75;;;;;;;8.26;63.67;103659.41;4915127;28;20469;-80
2023/12/17 10:12:35;;;;;;;23.02;14.82;;;;;;;8.20;63.44;103648.13;4941979;28;20046;-80
2023/12/17 10:15:03;;;;;;;21.05;16.33;;;;;;;8.31;63.34;103670.72;4916108;28;20118;-80
2023/12/17 10:17:30;;;;;;;20.60;17.08;;;;;;;8.31;63.67;103661.91;4943102;28;20599;-82
2023/12/17 10:19:57;;;;;;;21.70;17.58;;;;;;;7.98;63.73;103617.00;4942795;28;20301;-79
2023/12/17 10:22:28;;;;;;;21.00;17.25;;;;;;;8.29;63.76;103631.97;4932981;28;20046;-80
2023/12/17 10:25:01;;;;;;;22.17;17.45;;;;;;;8.40;64.13;103644.91;4931237;28;20187;-81
2023/12/17 10:27:30;;;;;;;19.25;15.45;;;;;;;7.83;63.40;103543.41;4928765;28;20042;-80
2023/12/17 10:30:00;;;;;;;17.73;15.73;;;;;;;8.48;63.83;103649.03;4925753;28;20271;-80
2023/12/17 10:32:27;;;;;;;20.33;18.13;;;;;;;8.10;63.41;103584.03;4950097;28;20257;-80
2023/12/17 10:34:54;;;;;;;20.60;16.38;;;;;;;8.29;64.01;103602.84;4942203;28;20136;-81
2023/12/17 10:37:25;;;;;;;21.67;17.45;;;;;;;8.34;64.06;103587.69;4925728;28;20053;-79
2023/12/17 10:39:59;;;;;;;23.00;17.00;;;;;;;8.62;63.82;103622.13;4910568;28;20407;-81
2023/12/17 10:42:29;;;;;;;21.33;17.85;;;;;;;8.49;63.63;103604.91;4926150;28;20141;-80
2023/12/17 10:44:57;;;;;;;22.02;17.13;;;;;;;8.71;62.51;103613.00;4948781;28;20261;-82
2023/12/17 10:47:25;;;;;;;22.83;17.63;;;;;;;8.76;63.12;103609.31;4911086;28;20128;-80
2023/12/17 10:49:53;;;;;;;20.45;16.20;;;;;;;8.64;63.03;103607.06;4934149;28;20056;-80
2023/12/17 10:52:24;;;;;;;23.63;17.17;;;;;;;8.58;63.69;103591.38;4959340;28;20410;-81
2023/12/17 10:54:51;;;;;;;20.27;16.20;;;;;;;8.63;63.72;103599.16;4935148;28;20061;-80
2023/12/17 10:57:23;;;;;;;20.02;15.55;;;;;;;8.81;62.78;103606.50;4952208;28;20513;-80
2023/12/17 10:59:51;;;;;;;;;;;;;;;8.91;61.99;103599.13;4938785;28;20133;-79
2023/12/17 11:02:26;;;;;;;22.17;15.00;;;;;;;8.93;62.26;103586.66;4925910;28;20535;-82
2023/12/17 11:04:56;;;;;;;17.27;13.93;;;;;;;8.94;61.80;103583.09;4928164;28;20569;-81
2023/12/17 11:07:24;;;;;;;21.20;13.95;;;;;;;9.12;61.37;103602.78;4910634;28;20068;-81
2023/12/17 11:10:10;;;;;;;19.10;14.23;;;;;;;9.13;61.25;103600.09;4913714;28;20438;-82
2023/12/17 11:12:44;;;;;;;20.20;14.50;;;;;;;9.19;60.62;103597.22;4912252;28;20321;-80
2023/12/17 11:15:14;;;;;;;19.55;14.40;;;;;;;9.18;60.52;103592.84;4918960;28;20043;-81
2023/12/17 11:17:42;;;;;;;19.88;14.18;;;;;;;8.93;60.47;103555.75;4934737;28;20470;-82
2023/12/17 11:20:13;;;;;;;18.05;13.38;;;;;;;8.81;61.14;103548.22;4946157;28;20490;-81
2023/12/17 11:22:40;;;;;;;19.52;14.02;;;;;;;9.13;60.13;103572.72;4933073;28;20213;-82